Time;durP1;ratioP1;P1;durP2;ratioP2;P2;SDS_P1;SDS_P2;PMS_P1;PMS_P2;Temp;Humidity;BMP_temperature;BMP_pressure;BME280_temperature;BME280_humidity;BME280_pressure;Samples;Min_cycle;Max_cycle;Signal;HPM_P1;HPM_P2
2022/09/14 00:04:56;;;;;;;6.82;2.17;;;19.10;99.90;;;;;;21073398;28;20051;-77
2022/09/14 00:14:57;;;;;;;7.87;2.00;;;19.10;99.90;;;;;;21069917;28;20523;-76
2022/09/14 00:24:58;;;;;;;6.30;2.23;;;19.00;99.90;;;;;;21090216;28;20043;-76
2022/09/14 00:34:58;;;;;;;5.40;2.57;;;19.00;99.90;;;;;;21071307;28;20032;-76
2022/09/14 00:45:20;;;;;;;4.33;2.27;;;18.80;99.90;;;;;;21087994;28;20079;-76
2022/09/14 00:55:23;;;;;;;5.30;2.40;;;18.60;99.90;;;;;;21088172;28;20625;-77
2022/09/14 01:05:49;;;;;;;5.80;2.47;;;18.70;99.90;;;;;;21092357;28;20040;-77
2022/09/14 01:15:50;;;;;;;7.32;2.92;;;18.80;99.90;;;;;;21086146;28;20062;-77
2022/09/14 01:25:52;;;;;;;6.78;2.60;;;18.80;99.90;;;;;;21083979;28;20068;-76
2022/09/14 01:35:56;;;;;;;3.77;2.73;;;18.90;99.90;;;;;;21066477;28;20058;-76
2022/09/14 01:46:06;;;;;;;6.03;3.22;;;18.80;99.90;;;;;;21065690;28;20506;-76
2022/09/14 01:56:19;;;;;;;5.63;2.50;;;18.70;99.90;;;;;;21082880;28;20032;-76
2022/09/14 02:06:34;;;;;;;5.30;2.83;;;18.60;99.90;;;;;;21064041;28;20089;-77
2022/09/14 02:16:35;;;;;;;4.50;2.65;;;18.50;99.90;;;;;;21081093;28;20398;-76
2022/09/14 02:26:37;;;;;;;6.77;3.73;;;18.30;99.90;;;;;;21080563;28;20036;-76
2022/09/14 02:37:02;;;;;;;6.18;3.08;;;18.40;99.90;;;;;;21079856;28;20051;-75
2022/09/14 02:47:13;;;;;;;6.78;2.90;;;18.10;99.90;;;;;;21069510;28;20398;-77
2022/09/14 02:57:13;;;;;;;10.60;3.23;;;18.20;99.90;;;;;;21079296;28;20048;-77
2022/09/14 03:07:14;;;;;;;3.03;2.73;;;18.20;99.90;;;;;;21065324;22;20067;-83
2022/09/14 03:17:15;;;;;;;7.17;3.23;;;18.20;99.90;;;;;;20904632;28;20121;-83
2022/09/14 03:27:16;;;;;;;6.43;2.60;;;18.10;99.90;;;;;;20904957;28;20132;-82
2022/09/14 03:37:17;;;;;;;4.43;3.20;;;17.90;99.90;;;;;;20862334;28;20084;-80
2022/09/14 03:47:17;;;;;;;4.53;3.07;;;17.90;99.90;;;;;;20808271;28;20403;-78
2022/09/14 03:57:18;;;;;;;7.77;3.07;;;17.90;99.90;;;;;;20876414;28;20040;-78
2022/09/14 04:07:19;;;;;;;5.43;3.23;;;17.90;99.90;;;;;;20861716;28;20042;-81
2022/09/14 04:17:21;;;;;;;5.47;3.13;;;17.60;99.90;;;;;;20865745;28;20068;-80
2022/09/14 04:27:22;;;;;;;7.47;4.45;;;17.60;99.90;;;;;;20865677;28;20083;-80
2022/09/14 04:37:23;;;;;;;5.00;3.20;;;17.60;99.90;;;;;;20844041;28;20042;-80
2022/09/14 04:47:23;;;;;;;10.23;4.60;;;17.30;99.90;;;;;;20843366;28;20041;-79
2022/09/14 04:57:24;;;;;;;7.13;5.30;;;17.00;99.90;;;;;;20854384;28;20041;-78
2022/09/14 05:07:26;;;;;;;5.23;4.17;;;16.90;99.90;;;;;;20857667;28;20049;-78
2022/09/14 05:17:27;;;;;;;13.88;4.53;;;17.10;99.90;;;;;;20863073;28;20124;-78
2022/09/14 05:27:28;;;;;;;17.67;4.13;;;17.20;99.90;;;;;;20849568;28;20046;-78
2022/09/14 05:37:28;;;;;;;6.30;3.97;;;17.20;99.90;;;;;;20855892;28;20076;-80
2022/09/14 05:47:30;;;;;;;7.97;4.40;;;17.40;99.90;;;;;;20841936;28;20056;-79
2022/09/14 05:57:31;;;;;;;8.38;5.13;;;17.50;99.90;;;;;;20872991;28;20451;-79
2022/09/14 06:07:32;;;;;;;7.67;4.03;;;17.70;99.90;;;;;;20839832;28;20038;-80
2022/09/14 06:17:33;;;;;;;11.23;5.33;;;17.90;99.90;;;;;;20837835;28;20041;-79
2022/09/14 06:27:33;;;;;;;7.10;4.80;;;18.10;99.90;;;;;;20865755;28;20041;-79
2022/09/14 06:37:34;;;;;;;6.30;4.40;;;18.30;99.90;;;;;;20839772;28;20077;-79
2022/09/14 06:47:35;;;;;;;10.37;4.67;;;18.70;99.90;;;;;;20840501;28;20045;-80
2022/09/14 06:57:36;;;;;;;8.03;4.63;;;18.90;99.90;;;;;;20846149;28;20096;-80
2022/09/14 07:07:37;;;;;;;7.50;4.00;;;19.50;99.90;;;;;;20832121;28;20157;-79
2022/09/14 07:17:38;;;;;;;9.80;3.57;;;19.50;99.90;;;;;;20858885;28;20527;-80
2022/09/14 07:27:39;;;;;;;5.90;3.90;;;20.20;99.90;;;;;;20856172;28;20049;-79
2022/09/14 07:37:40;;;;;;;5.10;3.63;;;21.50;99.90;;;;;;20876058;28;20530;-79
2022/09/14 07:47:41;;;;;;;10.63;4.40;;;21.50;99.90;;;;;;20876301;28;20484;-79
2022/09/14 07:57:42;;;;;;;6.10;3.25;;;20.60;99.90;;;;;;20870511;28;20041;-79
2022/09/14 08:07:42;;;;;;;9.50;3.80;;;20.90;99.90;;;;;;20851906;28;20052;-80
2022/09/14 08:17:43;;;;;;;5.97;2.97;;;21.30;99.90;;;;;;20872560;28;20136;-80
2022/09/14 08:27:44;;;;;;;6.97;2.53;;;21.50;99.90;;;;;;20878210;28;20124;-79
2022/09/14 08:37:44;;;;;;;6.90;3.17;;;22.00;99.90;;;;;;20896455;28;20045;-79
2022/09/14 08:47:46;;;;;;;6.10;3.30;;;22.20;99.90;;;;;;20903584;28;20155;-79
2022/09/14 08:57:52;;;;;;;;;;;22.20;99.90;;;;;;20902730;28;20033;-80
2022/09/14 09:08:11;;;;;;;6.65;2.60;;;23.10;99.90;;;;;;20943576;23;19920;-76
2022/09/14 09:18:24;;;;;;;8.50;2.22;;;23.70;99.90;;;;;;21002153;28;20063;-76
2022/09/14 09:28:27;;;;;;;6.80;1.92;;;23.90;99.90;;;;;;21001869;28;20119;-76
2022/09/14 09:38:28;;;;;;;2.92;1.60;;;24.30;99.90;;;;;;21000917;28;20115;-76
2022/09/14 09:48:38;;;;;;;3.78;1.60;;;25.20;99.90;;;;;;20999625;28;20060;-76
2022/09/14 09:58:39;;;;;;;6.15;1.95;;;24.90;99.90;;;;;;20981011;28;20041;-76
2022/09/14 10:08:44;;;;;;;6.90;1.80;;;25.20;99.90;;;;;;20998417;28;20414;-76
2022/09/14 10:18:51;;;;;;;7.20;1.75;;;25.70;99.90;;;;;;20997816;28;20032;-76
2022/09/14 10:28:52;;;;;;;4.80;1.20;;;26.60;99.90;;;;;;20996965;28;20041;-76
2022/09/14 10:38:57;;;;;;;7.35;1.65;;;26.70;99.90;;;;;;20997885;28;20576;-76
2022/09/14 10:49:25;;;;;;;5.65;0.90;;;27.10;99.90;;;;;;20995313;28;20040;-76
2022/09/14 10:59:48;;;;;;;4.43;0.90;;;27.60;99.90;;;;;;20976550;28;20036;-76
2022/09/14 11:10:17;;;;;;;6.10;1.05;;;27.00;99.90;;;;;;20975630;28;20044;-76
2022/09/14 11:20:29;;;;;;;8.48;1.42;;;27.40;99.90;;;;;;20992949;28;20448;-76
2022/09/14 11:30:38;;;;;;;8.38;1.17;;;26.60;99.90;;;;;;20992430;28;20382;-76
2022/09/14 11:41:06;;;;;;;7.82;1.15;;;26.70;99.90;;;;;;20974142;28;20047;-76
2022/09/14 11:51:14;;;;;;;6.50;1.13;;;26.50;99.90;;;;;;20991101;28;20047;-76
2022/09/14 12:01:28;;;;;;;3.50;1.13;;;26.00;99.90;;;;;;20972583;28;20048;-76
2022/09/14 12:11:32;;;;;;;2.47;0.95;;;25.20;99.90;;;;;;20989469;28;20040;-76
2022/09/14 12:21:33;;;;;;;3.03;1.42;;;24.70;99.90;;;;;;20989805;28;20174;-76
2022/09/14 12:31:43;;;;;;;2.40;1.10;;;24.90;99.90;;;;;;20989213;28;20075;-75
2022/09/14 12:41:46;;;;;;;3.67;1.42;;;25.10;99.90;;;;;;20989633;28;20047;-76
2022/09/14 12:51:49;;;;;;;10.20;1.20;;;24.30;99.90;;;;;;20988730;28;20048;-76
2022/09/14 13:02:01;;;;;;;9.57;1.40;;;24.10;99.90;;;;;;20988303;28;20394;-76
2022/09/14 13:12:08;;;;;;;3.65;1.40;;;23.60;99.90;;;;;;20987562;28;20041;-76
2022/09/14 13:22:21;;;;;;;9.73;1.77;;;23.10;99.90;;;;;;20980699;28;20110;-76
2022/09/14 13:32:21;;;;;;;5.90;1.30;;;23.10;99.90;;;;;;21001473;28;20051;-76
2022/09/14 13:42:23;;;;;;;;;;;23.00;99.90;;;;;;21001553;28;20033;-76
2022/09/14 13:52:24;;;;;;;8.88;1.23;;;23.90;99.90;;;;;;21000127;28;19922;-76
2022/09/14 14:02:26;;;;;;;5.30;1.00;;;24.40;99.90;;;;;;20979440;28;20117;-75
2022/09/14 14:12:32;;;;;;;2.95;0.55;;;24.50;99.90;;;;;;20972500;28;20099;-76
2022/09/14 14:22:34;;;;;;;3.35;0.70;;;25.20;99.90;;;;;;20921946;28;20115;-76
2022/09/14 14:32:35;;;;;;;4.78;1.05;;;24.40;99.90;;;;;;20996193;28;20245;-76
2022/09/14 14:42:35;;;;;;;;;;;23.60;99.90;;;;;;20995368;28;20450;-75
2022/09/14 14:52:36;;;;;;;5.13;1.80;;;22.70;99.90;;;;;;20976158;28;19908;-77
2022/09/14 15:02:37;;;;;;;2.17;0.87;;;22.50;99.90;;;;;;20994244;28;20072;-77
2022/09/14 15:12:38;;;;;;;1.92;0.93;;;22.10;99.90;;;;;;20994455;28;20502;-76
2022/09/14 17:41:19;;;;;;;6.50;2.53;;;19.60;99.90;;;;;;20892403;22;20048;-82
2022/09/14 17:51:23;;;;;;;9.10;3.40;;;19.80;99.90;;;;;;20966490;28;20044;-81
2022/09/14 18:01:24;;;;;;;7.93;3.08;;;19.20;99.90;;;;;;20952524;28;20047;-83
2022/09/14 18:11:26;;;;;;;11.90;3.10;;;19.40;99.90;;;;;;20963264;28;20041;-83
2022/09/14 18:21:28;;;;;;;14.35;4.25;;;19.40;99.90;;;;;;20970137;28;20043;-84
2022/09/14 18:31:29;;;;;;;6.67;3.40;;;19.20;99.90;;;;;;20980939;28;20036;-83
2022/09/14 18:41:32;;;;;;;9.05;4.35;;;19.10;99.90;;;;;;20980659;28;20190;-83
2022/09/14 18:51:33;;;;;;;7.00;3.00;;;18.80;99.90;;;;;;20964080;28;20037;-84
2022/09/14 19:01:35;;;;;;;5.60;2.90;;;19.00;99.90;;;;;;20963402;28;20071;-84
2022/09/14 19:11:36;;;;;;;7.20;2.72;;;19.10;99.90;;;;;;20994056;28;20044;-83
2022/09/14 19:21:37;;;;;;;6.03;2.50;;;18.90;99.90;;;;;;20977403;28;20041;-84
2022/09/14 19:31:38;;;;;;;8.30;3.30;;;18.70;99.90;;;;;;20961262;28;20039;-83
2022/09/14 19:41:39;;;;;;;13.10;5.83;;;18.60;99.90;;;;;;20976106;28;20040;-83
2022/09/14 19:51:40;;;;;;;30.83;12.27;;;18.40;99.90;;;;;;20977699;28;20055;-82
2022/09/14 20:01:41;;;;;;;30.83;13.57;;;18.20;99.90;;;;;;20974905;28;20041;-84
2022/09/14 20:11:43;;;;;;;33.72;13.73;;;18.30;99.90;;;;;;20889317;28;20131;-84
2022/09/14 20:21:46;;;;;;;24.08;11.75;;;18.10;99.90;;;;;;20889962;28;20041;-84
2022/09/14 20:31:47;;;;;;;24.25;11.23;;;18.20;99.90;;;;;;20903844;28;20493;-85
2022/09/14 20:41:48;;;;;;;25.60;9.68;;;18.30;99.90;;;;;;20978310;28;20448;-85
2022/09/14 20:51:51;;;;;;;;;;;18.00;99.90;;;;;;20988019;28;20040;-84
2022/09/14 21:01:52;;;;;;;21.80;10.25;;;17.80;99.90;;;;;;21003926;28;19912;-84
2022/09/14 21:11:53;;;;;;;35.13;9.23;;;18.00;99.90;;;;;;20926273;28;20520;-84
2022/09/14 21:21:54;;;;;;;;;;;18.00;99.90;;;;;;20963903;28;20044;-83
2022/09/14 21:31:55;;;;;;;8.43;5.50;;;18.10;99.90;;;;;;21003842;28;19908;-83
2022/09/14 21:41:58;;;;;;;16.93;6.10;;;17.90;99.90;;;;;;21035672;28;20347;-84
2022/09/14 21:51:58;;;;;;;25.15;13.32;;;17.60;99.90;;;;;;21048539;28;20039;-83
2022/09/14 22:01:59;;;;;;;17.77;8.90;;;17.70;99.90;;;;;;21013828;28;20501;-83
2022/09/14 22:12:00;;;;;;;23.03;10.17;;;17.80;99.90;;;;;;21034360;28;20078;-82
2022/09/14 22:22:02;;;;;;;14.63;7.63;;;17.80;99.90;;;;;;21061820;28;20047;-83
2022/09/14 22:32:05;;;;;;;5.70;3.38;;;17.70;99.90;;;;;;21060915;28;20040;-83
2022/09/14 22:42:06;;;;;;;8.00;3.38;;;17.40;99.90;;;;;;21060038;28;20051;-82
2022/09/14 22:52:07;;;;;;;6.00;2.20;;;17.20;99.90;;;;;;21059025;28;20093;-84
2022/09/14 23:02:08;;;;;;;4.13;3.17;;;17.20;99.90;;;;;;21041627;28;20046;-83
2022/09/14 23:12:09;;;;;;;6.70;3.20;;;17.30;99.90;;;;;;21058135;28;20040;-83
2022/09/14 23:22:09;;;;;;;8.67;4.00;;;17.20;99.90;;;;;;21040299;28;20451;-82
2022/09/14 23:32:10;;;;;;;9.20;3.23;;;17.20;99.90;;;;;;21056212;28;20048;-82
2022/09/14 23:42:12;;;;;;;9.13;3.23;;;17.20;99.90;;;;;;21054451;28;20072;-83
2022/09/14 23:52:14;;;;;;;4.72;2.58;;;17.10;99.90;;;;;;21037929;28;20036;-82
